sensor_id;sensor_type;location;lat;lon;timestamp;P1;durP1;ratioP1;P2;durP2;ratioP2
32734;SDS011;19112;51.076;3.706;2023-03-01T00:00:22;23.58;;;10.27;;
32734;SDS011;19112;51.076;3.706;2023-03-01T00:02:49;24.38;;;9.57;;
32734;SDS011;19112;51.076;3.706;2023-03-01T00:05:16;23.08;;;10.02;;
32734;SDS011;19112;51.076;3.706;2023-03-01T00:07:42;28.55;;;11.00;;
32734;SDS011;19112;51.076;3.706;2023-03-01T00:10:14;23.10;;;10.02;;
32734;SDS011;19112;51.076;3.706;2023-03-01T00:12:40;23.67;;;10.05;;
32734;SDS011;19112;51.076;3.706;2023-03-01T00:18:02;21.75;;;9.85;;
32734;SDS011;19112;51.076;3.706;2023-03-01T00:20:30;26.67;;;9.85;;
32734;SDS011;19112;51.076;3.706;2023-03-01T00:23:04;23.17;;;10.63;;
32734;SDS011;19112;51.076;3.706;2023-03-01T00:25:43;21.58;;;9.93;;
32734;SDS011;19112;51.076;3.706;2023-03-01T00:28:20;23.52;;;10.32;;
32734;SDS011;19112;51.076;3.706;2023-03-01T00:33:57;26.00;;;9.85;;
32734;SDS011;19112;51.076;3.706;2023-03-01T00:36:35;22.92;;;10.10;;
32734;SDS011;19112;51.076;3.706;2023-03-01T00:47:15;23.70;;;10.00;;
32734;SDS011;19112;51.076;3.706;2023-03-01T00:49:48;22.40;;;9.40;;
32734;SDS011;19112;51.076;3.706;2023-03-01T01:00:48;21.08;;;9.52;;
32734;SDS011;19112;51.076;3.706;2023-03-01T01:03:15;24.27;;;10.02;;
32734;SDS011;19112;51.076;3.706;2023-03-01T01:05:44;22.42;;;9.77;;
32734;SDS011;19112;51.076;3.706;2023-03-01T01:10:55;26.33;;;10.80;;
32734;SDS011;19112;51.076;3.706;2023-03-01T01:13:21;24.83;;;10.80;;
32734;SDS011;19112;51.076;3.706;2023-03-01T01:19:02;22.95;;;10.35;;
32734;SDS011;19112;51.076;3.706;2023-03-01T01:21:28;22.70;;;9.60;;
32734;SDS011;19112;51.076;3.706;2023-03-01T01:24:00;24.40;;;10.30;;
32734;SDS011;19112;51.076;3.706;2023-03-01T01:26:28;20.98;;;9.88;;
32734;SDS011;19112;51.076;3.706;2023-03-01T01:28:57;23.75;;;9.95;;
32734;SDS011;19112;51.076;3.706;2023-03-01T01:31:25;24.42;;;11.05;;
32734;SDS011;19112;51.076;3.706;2023-03-01T01:34:00;26.48;;;11.63;;
32734;SDS011;19112;51.076;3.706;2023-03-01T01:36:29;25.70;;;12.30;;
32734;SDS011;19112;51.076;3.706;2023-03-01T01:38:56;23.23;;;10.70;;
32734;SDS011;19112;51.076;3.706;2023-03-01T01:41:23;26.52;;;11.85;;
32734;SDS011;19112;51.076;3.706;2023-03-01T01:47:00;27.85;;;11.68;;
32734;SDS011;19112;51.076;3.706;2023-03-01T01:49:52;27.23;;;11.48;;
32734;SDS011;19112;51.076;3.706;2023-03-01T01:52:31;26.55;;;11.35;;
32734;SDS011;19112;51.076;3.706;2023-03-01T01:55:08;29.48;;;12.25;;
32734;SDS011;19112;51.076;3.706;2023-03-01T01:57:55;27.42;;;12.25;;
32734;SDS011;19112;51.076;3.706;2023-03-01T02:00:27;26.25;;;12.10;;
32734;SDS011;19112;51.076;3.706;2023-03-01T02:03:14;26.17;;;11.55;;
32734;SDS011;19112;51.076;3.706;2023-03-01T02:05:59;26.85;;;12.30;;
32734;SDS011;19112;51.076;3.706;2023-03-01T02:08:33;25.75;;;11.23;;
32734;SDS011;19112;51.076;3.706;2023-03-01T02:11:03;28.95;;;13.10;;
32734;SDS011;19112;51.076;3.706;2023-03-01T02:13:30;29.15;;;13.05;;
32734;SDS011;19112;51.076;3.706;2023-03-01T02:16:02;29.20;;;12.32;;
32734;SDS011;19112;51.076;3.706;2023-03-01T02:18:41;28.50;;;12.95;;
32734;SDS011;19112;51.076;3.706;2023-03-01T02:26:56;26.05;;;12.27;;
32734;SDS011;19112;51.076;3.706;2023-03-01T02:29:23;28.20;;;13.25;;
32734;SDS011;19112;51.076;3.706;2023-03-01T02:31:50;29.38;;;13.57;;
32734;SDS011;19112;51.076;3.706;2023-03-01T02:37:02;29.05;;;13.90;;
32734;SDS011;19112;51.076;3.706;2023-03-01T02:39:42;32.33;;;14.75;;
32734;SDS011;19112;51.076;3.706;2023-03-01T02:42:22;31.02;;;14.60;;
32734;SDS011;19112;51.076;3.706;2023-03-01T02:44:56;32.57;;;14.23;;
32734;SDS011;19112;51.076;3.706;2023-03-01T02:47:22;28.20;;;13.73;;
32734;SDS011;19112;51.076;3.706;2023-03-01T02:49:48;30.35;;;14.13;;
32734;SDS011;19112;51.076;3.706;2023-03-01T02:55:18;32.40;;;15.13;;
32734;SDS011;19112;51.076;3.706;2023-03-01T02:57:44;32.08;;;15.07;;
32734;SDS011;19112;51.076;3.706;2023-03-01T03:00:17;36.45;;;15.15;;
32734;SDS011;19112;51.076;3.706;2023-03-01T03:02:54;33.58;;;15.70;;
32734;SDS011;19112;51.076;3.706;2023-03-01T03:05:31;41.22;;;17.02;;
32734;SDS011;19112;51.076;3.706;2023-03-01T03:07:58;35.42;;;16.92;;
32734;SDS011;19112;51.076;3.706;2023-03-01T03:10:29;36.55;;;16.30;;
32734;SDS011;19112;51.076;3.706;2023-03-01T03:12:58;34.35;;;16.75;;
32734;SDS011;19112;51.076;3.706;2023-03-01T03:15:27;37.17;;;15.75;;
32734;SDS011;19112;51.076;3.706;2023-03-01T03:17:54;35.53;;;16.17;;
32734;SDS011;19112;51.076;3.706;2023-03-01T03:20:23;32.67;;;15.63;;
32734;SDS011;19112;51.076;3.706;2023-03-01T03:22:52;37.78;;;17.42;;
32734;SDS011;19112;51.076;3.706;2023-03-01T03:25:20;35.60;;;17.58;;
32734;SDS011;19112;51.076;3.706;2023-03-01T03:27:48;33.75;;;16.00;;
32734;SDS011;19112;51.076;3.706;2023-03-01T03:30:23;35.05;;;16.27;;
32734;SDS011;19112;51.076;3.706;2023-03-01T03:32:53;34.15;;;15.63;;
32734;SDS011;19112;51.076;3.706;2023-03-01T03:35:22;37.72;;;17.48;;
32734;SDS011;19112;51.076;3.706;2023-03-01T03:37:55;39.05;;;17.20;;
32734;SDS011;19112;51.076;3.706;2023-03-01T03:43:05;33.15;;;15.35;;
32734;SDS011;19112;51.076;3.706;2023-03-01T03:45:37;32.60;;;15.63;;
32734;SDS011;19112;51.076;3.706;2023-03-01T03:48:03;36.85;;;16.77;;
32734;SDS011;19112;51.076;3.706;2023-03-01T03:50:32;36.70;;;17.13;;
32734;SDS011;19112;51.076;3.706;2023-03-01T03:53:02;39.05;;;16.83;;
32734;SDS011;19112;51.076;3.706;2023-03-01T03:55:35;42.33;;;17.38;;
32734;SDS011;19112;51.076;3.706;2023-03-01T03:58:04;39.92;;;17.58;;
32734;SDS011;19112;51.076;3.706;2023-03-01T04:00:36;33.03;;;16.00;;
32734;SDS011;19112;51.076;3.706;2023-03-01T04:03:05;35.42;;;16.15;;
32734;SDS011;19112;51.076;3.706;2023-03-01T04:05:32;36.20;;;16.38;;
32734;SDS011;19112;51.076;3.706;2023-03-01T04:07:58;39.20;;;17.83;;
32734;SDS011;19112;51.076;3.706;2023-03-01T04:10:31;36.67;;;17.13;;
32734;SDS011;19112;51.076;3.706;2023-03-01T04:13:04;39.83;;;17.25;;
32734;SDS011;19112;51.076;3.706;2023-03-01T04:15:32;41.65;;;17.98;;
32734;SDS011;19112;51.076;3.706;2023-03-01T04:17:59;34.83;;;17.15;;
32734;SDS011;19112;51.076;3.706;2023-03-01T04:20:26;37.83;;;18.17;;
32734;SDS011;19112;51.076;3.706;2023-03-01T04:23:05;43.40;;;18.48;;
32734;SDS011;19112;51.076;3.706;2023-03-01T04:25:48;35.25;;;16.98;;
32734;SDS011;19112;51.076;3.706;2023-03-01T04:28:23;40.42;;;16.73;;
32734;SDS011;19112;51.076;3.706;2023-03-01T04:30:56;38.08;;;17.35;;
32734;SDS011;19112;51.076;3.706;2023-03-01T04:33:25;44.65;;;17.48;;
32734;SDS011;19112;51.076;3.706;2023-03-01T04:35:51;35.42;;;16.30;;
32734;SDS011;19112;51.076;3.706;2023-03-01T04:38:18;36.85;;;17.00;;
32734;SDS011;19112;51.076;3.706;2023-03-01T04:40:45;39.08;;;17.23;;
32734;SDS011;19112;51.076;3.706;2023-03-01T04:43:11;38.72;;;17.08;;
32734;SDS011;19112;51.076;3.706;2023-03-01T04:45:40;35.80;;;17.25;;
32734;SDS011;19112;51.076;3.706;2023-03-01T04:48:06;37.08;;;17.40;;
32734;SDS011;19112;51.076;3.706;2023-03-01T04:50:32;38.47;;;16.75;;
32734;SDS011;19112;51.076;3.706;2023-03-01T04:52:58;38.83;;;18.60;;
32734;SDS011;19112;51.076;3.706;2023-03-01T04:55:27;42.10;;;18.23;;
32734;SDS011;19112;51.076;3.706;2023-03-01T04:57:54;38.70;;;17.30;;
32734;SDS011;19112;51.076;3.706;2023-03-01T05:00:21;40.90;;;18.40;;
32734;SDS011;19112;51.076;3.706;2023-03-01T05:03:05;37.85;;;17.90;;
32734;SDS011;19112;51.076;3.706;2023-03-01T05:05:34;41.33;;;17.25;;
32734;SDS011;19112;51.076;3.706;2023-03-01T05:08:03;42.25;;;17.83;;
32734;SDS011;19112;51.076;3.706;2023-03-01T05:10:32;37.17;;;16.67;;
32734;SDS011;19112;51.076;3.706;2023-03-01T05:13:01;38.15;;;17.67;;
32734;SDS011;19112;51.076;3.706;2023-03-01T05:15:29;38.65;;;16.75;;
32734;SDS011;19112;51.076;3.706;2023-03-01T05:17:56;41.40;;;17.90;;
32734;SDS011;19112;51.076;3.706;2023-03-01T05:20:25;42.90;;;18.63;;
32734;SDS011;19112;51.076;3.706;2023-03-01T05:22:54;39.50;;;18.42;;
32734;SDS011;19112;51.076;3.706;2023-03-01T05:25:23;41.58;;;19.17;;
32734;SDS011;19112;51.076;3.706;2023-03-01T05:27:50;39.45;;;18.20;;
32734;SDS011;19112;51.076;3.706;2023-03-01T05:30:16;41.83;;;18.23;;
32734;SDS011;19112;51.076;3.706;2023-03-01T05:32:44;38.00;;;18.02;;
32734;SDS011;19112;51.076;3.706;2023-03-01T05:35:13;40.47;;;18.05;;
32734;SDS011;19112;51.076;3.706;2023-03-01T05:37:42;41.55;;;17.67;;
32734;SDS011;19112;51.076;3.706;2023-03-01T05:40:14;38.08;;;17.55;;
32734;SDS011;19112;51.076;3.706;2023-03-01T05:42:44;38.58;;;16.55;;
32734;SDS011;19112;51.076;3.706;2023-03-01T05:45:15;36.00;;;16.08;;
32734;SDS011;19112;51.076;3.706;2023-03-01T05:47:42;36.47;;;16.33;;
32734;SDS011;19112;51.076;3.706;2023-03-01T05:50:11;34.58;;;15.95;;
32734;SDS011;19112;51.076;3.706;2023-03-01T05:52:44;32.10;;;15.23;;
32734;SDS011;19112;51.076;3.706;2023-03-01T05:55:13;33.50;;;14.20;;
32734;SDS011;19112;51.076;3.706;2023-03-01T05:57:43;34.53;;;14.90;;
32734;SDS011;19112;51.076;3.706;2023-03-01T06:00:10;32.08;;;14.27;;
32734;SDS011;19112;51.076;3.706;2023-03-01T06:02:38;34.92;;;14.85;;
32734;SDS011;19112;51.076;3.706;2023-03-01T06:05:05;36.58;;;15.27;;
32734;SDS011;19112;51.076;3.706;2023-03-01T06:07:34;37.83;;;15.07;;
32734;SDS011;19112;51.076;3.706;2023-03-01T06:10:00;33.40;;;15.52;;
32734;SDS011;19112;51.076;3.706;2023-03-01T06:12:30;31.27;;;13.65;;
32734;SDS011;19112;51.076;3.706;2023-03-01T06:14:57;34.50;;;13.73;;
32734;SDS011;19112;51.076;3.706;2023-03-01T06:17:24;35.05;;;16.88;;
32734;SDS011;19112;51.076;3.706;2023-03-01T06:19:50;35.28;;;15.07;;
32734;SDS011;19112;51.076;3.706;2023-03-01T06:22:15;32.47;;;14.57;;
32734;SDS011;19112;51.076;3.706;2023-03-01T06:24:41;37.53;;;14.15;;
32734;SDS011;19112;51.076;3.706;2023-03-01T06:27:07;34.17;;;14.05;;
32734;SDS011;19112;51.076;3.706;2023-03-01T06:29:33;33.85;;;13.88;;
32734;SDS011;19112;51.076;3.706;2023-03-01T06:31:59;34.38;;;13.27;;
32734;SDS011;19112;51.076;3.706;2023-03-01T06:34:24;30.20;;;13.60;;
32734;SDS011;19112;51.076;3.706;2023-03-01T06:36:50;32.58;;;13.98;;
32734;SDS011;19112;51.076;3.706;2023-03-01T06:39:16;33.95;;;14.15;;
32734;SDS011;19112;51.076;3.706;2023-03-01T06:41:43;34.75;;;14.77;;
32734;SDS011;19112;51.076;3.706;2023-03-01T06:44:09;36.08;;;14.88;;
32734;SDS011;19112;51.076;3.706;2023-03-01T06:46:35;35.90;;;15.32;;
32734;SDS011;19112;51.076;3.706;2023-03-01T06:49:01;36.78;;;15.18;;
32734;SDS011;19112;51.076;3.706;2023-03-01T06:51:32;36.00;;;13.68;;
32734;SDS011;19112;51.076;3.706;2023-03-01T06:53:58;30.00;;;13.35;;
32734;SDS011;19112;51.076;3.706;2023-03-01T06:56:24;33.60;;;13.70;;
32734;SDS011;19112;51.076;3.706;2023-03-01T06:58:50;34.28;;;13.27;;
32734;SDS011;19112;51.076;3.706;2023-03-01T07:01:15;28.83;;;12.60;;
32734;SDS011;19112;51.076;3.706;2023-03-01T07:03:41;29.63;;;13.40;;
32734;SDS011;19112;51.076;3.706;2023-03-01T07:06:09;32.92;;;12.73;;
32734;SDS011;19112;51.076;3.706;2023-03-01T07:08:35;32.28;;;14.35;;
32734;SDS011;19112;51.076;3.706;2023-03-01T07:11:01;28.38;;;12.15;;
32734;SDS011;19112;51.076;3.706;2023-03-01T07:13:28;34.47;;;14.43;;
32734;SDS011;19112;51.076;3.706;2023-03-01T07:15:56;32.55;;;13.85;;
32734;SDS011;19112;51.076;3.706;2023-03-01T07:18:22;33.22;;;13.05;;
32734;SDS011;19112;51.076;3.706;2023-03-01T07:20:48;32.05;;;13.13;;
32734;SDS011;19112;51.076;3.706;2023-03-01T07:23:14;29.95;;;12.75;;
32734;SDS011;19112;51.076;3.706;2023-03-01T07:25:40;36.70;;;13.90;;
32734;SDS011;19112;51.076;3.706;2023-03-01T07:28:07;34.05;;;13.00;;
32734;SDS011;19112;51.076;3.706;2023-03-01T07:30:33;32.75;;;12.73;;
32734;SDS011;19112;51.076;3.706;2023-03-01T07:32:59;30.98;;;12.65;;
32734;SDS011;19112;51.076;3.706;2023-03-01T07:35:25;31.27;;;11.85;;
32734;SDS011;19112;51.076;3.706;2023-03-01T07:37:52;33.85;;;13.55;;
32734;SDS011;19112;51.076;3.706;2023-03-01T07:40:18;33.47;;;12.13;;
32734;SDS011;19112;51.076;3.706;2023-03-01T07:42:44;27.33;;;11.18;;
32734;SDS011;19112;51.076;3.706;2023-03-01T07:45:10;30.63;;;11.48;;
32734;SDS011;19112;51.076;3.706;2023-03-01T07:47:38;31.25;;;12.18;;
32734;SDS011;19112;51.076;3.706;2023-03-01T07:50:04;26.65;;;11.32;;
32734;SDS011;19112;51.076;3.706;2023-03-01T07:52:30;26.90;;;11.43;;
32734;SDS011;19112;51.076;3.706;2023-03-01T07:54:56;27.25;;;10.98;;
32734;SDS011;19112;51.076;3.706;2023-03-01T07:57:23;27.23;;;11.70;;
32734;SDS011;19112;51.076;3.706;2023-03-01T07:59:48;27.17;;;11.18;;
32734;SDS011;19112;51.076;3.706;2023-03-01T08:02:14;31.70;;;12.18;;
32734;SDS011;19112;51.076;3.706;2023-03-01T08:04:41;25.92;;;11.40;;
32734;SDS011;19112;51.076;3.706;2023-03-01T08:07:07;29.38;;;11.25;;
32734;SDS011;19112;51.076;3.706;2023-03-01T08:09:36;25.50;;;10.15;;
32734;SDS011;19112;51.076;3.706;2023-03-01T08:12:02;28.02;;;11.02;;
32734;SDS011;19112;51.076;3.706;2023-03-01T08:14:30;25.33;;;10.40;;
32734;SDS011;19112;51.076;3.706;2023-03-01T08:16:59;30.48;;;11.40;;
32734;SDS011;19112;51.076;3.706;2023-03-01T08:19:25;26.30;;;10.20;;
32734;SDS011;19112;51.076;3.706;2023-03-01T08:21:53;29.65;;;10.82;;
32734;SDS011;19112;51.076;3.706;2023-03-01T08:24:18;32.15;;;11.80;;
32734;SDS011;19112;51.076;3.706;2023-03-01T08:26:44;26.50;;;10.68;;
32734;SDS011;19112;51.076;3.706;2023-03-01T08:29:10;25.40;;;10.45;;
32734;SDS011;19112;51.076;3.706;2023-03-01T08:31:37;37.67;;;11.05;;
32734;SDS011;19112;51.076;3.706;2023-03-01T08:34:06;27.83;;;11.10;;
32734;SDS011;19112;51.076;3.706;2023-03-01T08:36:36;26.45;;;9.73;;
32734;SDS011;19112;51.076;3.706;2023-03-01T08:39:06;25.05;;;10.70;;
32734;SDS011;19112;51.076;3.706;2023-03-01T08:41:35;28.25;;;10.80;;
32734;SDS011;19112;51.076;3.706;2023-03-01T08:44:02;31.20;;;11.10;;
32734;SDS011;19112;51.076;3.706;2023-03-01T08:46:28;35.05;;;11.30;;
32734;SDS011;19112;51.076;3.706;2023-03-01T08:48:57;28.42;;;10.88;;
32734;SDS011;19112;51.076;3.706;2023-03-01T08:51:23;28.50;;;11.93;;
32734;SDS011;19112;51.076;3.706;2023-03-01T08:53:50;27.13;;;11.75;;
32734;SDS011;19112;51.076;3.706;2023-03-01T08:56:16;29.73;;;10.90;;
32734;SDS011;19112;51.076;3.706;2023-03-01T08:58:44;28.70;;;11.40;;
32734;SDS011;19112;51.076;3.706;2023-03-01T09:01:15;26.52;;;10.55;;
32734;SDS011;19112;51.076;3.706;2023-03-01T09:03:44;25.60;;;11.15;;
32734;SDS011;19112;51.076;3.706;2023-03-01T09:06:11;26.38;;;10.80;;
32734;SDS011;19112;51.076;3.706;2023-03-01T09:08:39;25.23;;;10.48;;
32734;SDS011;19112;51.076;3.706;2023-03-01T09:11:09;24.17;;;11.02;;
32734;SDS011;19112;51.076;3.706;2023-03-01T09:13:38;25.75;;;11.70;;
32734;SDS011;19112;51.076;3.706;2023-03-01T09:16:05;31.38;;;12.95;;
32734;SDS011;19112;51.076;3.706;2023-03-01T09:18:33;25.50;;;10.82;;
32734;SDS011;19112;51.076;3.706;2023-03-01T09:21:08;34.55;;;11.45;;
32734;SDS011;19112;51.076;3.706;2023-03-01T09:23:41;30.65;;;11.13;;
32734;SDS011;19112;51.076;3.706;2023-03-01T09:26:11;27.30;;;11.23;;
32734;SDS011;19112;51.076;3.706;2023-03-01T09:28:41;29.10;;;11.40;;
32734;SDS011;19112;51.076;3.706;2023-03-01T09:31:09;27.52;;;11.10;;
32734;SDS011;19112;51.076;3.706;2023-03-01T09:33:38;26.58;;;11.55;;
32734;SDS011;19112;51.076;3.706;2023-03-01T09:36:06;32.40;;;11.35;;
32734;SDS011;19112;51.076;3.706;2023-03-01T09:38:38;30.05;;;11.40;;
32734;SDS011;19112;51.076;3.706;2023-03-01T09:41:31;26.27;;;10.65;;
32734;SDS011;19112;51.076;3.706;2023-03-01T09:47:35;25.70;;;11.27;;
32734;SDS011;19112;51.076;3.706;2023-03-01T09:50:20;25.92;;;10.70;;
32734;SDS011;19112;51.076;3.706;2023-03-01T09:53:04;26.33;;;10.18;;
32734;SDS011;19112;51.076;3.706;2023-03-01T09:55:48;26.15;;;10.43;;
32734;SDS011;19112;51.076;3.706;2023-03-01T10:10:22;24.05;;;9.48;;
32734;SDS011;19112;51.076;3.706;2023-03-01T10:19:49;22.77;;;9.63;;
32734;SDS011;19112;51.076;3.706;2023-03-01T10:22:19;24.75;;;9.93;;
32734;SDS011;19112;51.076;3.706;2023-03-01T10:24:53;23.25;;;9.20;;
32734;SDS011;19112;51.076;3.706;2023-03-01T10:27:25;20.83;;;9.18;;
32734;SDS011;19112;51.076;3.706;2023-03-01T10:30:14;27.90;;;10.10;;
32734;SDS011;19112;51.076;3.706;2023-03-01T10:32:59;22.17;;;9.60;;
32734;SDS011;19112;51.076;3.706;2023-03-01T10:35:26;24.20;;;9.57;;
32734;SDS011;19112;51.076;3.706;2023-03-01T10:38:05;21.90;;;9.63;;
32734;SDS011;19112;51.076;3.706;2023-03-01T10:40:33;21.10;;;8.82;;
32734;SDS011;19112;51.076;3.706;2023-03-01T10:43:01;25.60;;;9.98;;
32734;SDS011;19112;51.076;3.706;2023-03-01T10:45:37;24.42;;;9.93;;
32734;SDS011;19112;51.076;3.706;2023-03-01T10:48:05;22.40;;;9.82;;
32734;SDS011;19112;51.076;3.706;2023-03-01T10:50:50;21.83;;;8.93;;
32734;SDS011;19112;51.076;3.706;2023-03-01T10:53:28;27.17;;;9.38;;
32734;SDS011;19112;51.076;3.706;2023-03-01T10:58:39;21.42;;;9.07;;
32734;SDS011;19112;51.076;3.706;2023-03-01T11:06:33;25.33;;;9.38;;
32734;SDS011;19112;51.076;3.706;2023-03-01T11:09:33;23.10;;;8.82;;
32734;SDS011;19112;51.076;3.706;2023-03-01T11:12:03;19.20;;;7.72;;
32734;SDS011;19112;51.076;3.706;2023-03-01T11:14:39;24.27;;;7.93;;
32734;SDS011;19112;51.076;3.706;2023-03-01T11:17:29;23.60;;;8.85;;
32734;SDS011;19112;51.076;3.706;2023-03-01T11:20:15;21.33;;;8.52;;
32734;SDS011;19112;51.076;3.706;2023-03-01T11:22:50;21.60;;;7.78;;
32734;SDS011;19112;51.076;3.706;2023-03-01T11:25:29;25.60;;;8.38;;
32734;SDS011;19112;51.076;3.706;2023-03-01T11:28:05;21.40;;;7.78;;
32734;SDS011;19112;51.076;3.706;2023-03-01T11:30:38;21.67;;;7.82;;
32734;SDS011;19112;51.076;3.706;2023-03-01T11:38:52;18.75;;;7.40;;
32734;SDS011;19112;51.076;3.706;2023-03-01T11:41:21;20.63;;;7.47;;
32734;SDS011;19112;51.076;3.706;2023-03-01T11:43:56;20.02;;;7.47;;
32734;SDS011;19112;51.076;3.706;2023-03-01T11:50:11;22.02;;;8.77;;
32734;SDS011;19112;51.076;3.706;2023-03-01T11:57:00;20.83;;;7.93;;
32734;SDS011;19112;51.076;3.706;2023-03-01T12:08:00;20.90;;;8.05;;
32734;SDS011;19112;51.076;3.706;2023-03-01T12:10:32;22.67;;;8.82;;
32734;SDS011;19112;51.076;3.706;2023-03-01T12:19:06;21.58;;;7.60;;
32734;SDS011;19112;51.076;3.706;2023-03-01T12:30:24;19.75;;;7.70;;
32734;SDS011;19112;51.076;3.706;2023-03-01T12:36:31;25.98;;;7.75;;
32734;SDS011;19112;51.076;3.706;2023-03-01T12:39:24;20.42;;;7.88;;
32734;SDS011;19112;51.076;3.706;2023-03-01T12:42:45;21.10;;;7.88;;
32734;SDS011;19112;51.076;3.706;2023-03-01T12:45:49;23.98;;;7.60;;
32734;SDS011;19112;51.076;3.706;2023-03-01T12:49:31;20.80;;;7.50;;
32734;SDS011;19112;51.076;3.706;2023-03-01T12:54:53;21.73;;;7.60;;
32734;SDS011;19112;51.076;3.706;2023-03-01T12:57:31;19.15;;;7.93;;
32734;SDS011;19112;51.076;3.706;2023-03-01T13:06:23;18.67;;;7.32;;
32734;SDS011;19112;51.076;3.706;2023-03-01T13:11:26;18.08;;;7.70;;
32734;SDS011;19112;51.076;3.706;2023-03-01T13:13:57;22.05;;;7.93;;
32734;SDS011;19112;51.076;3.706;2023-03-01T13:16:53;22.83;;;8.20;;
32734;SDS011;19112;51.076;3.706;2023-03-01T13:19:23;21.88;;;7.88;;
32734;SDS011;19112;51.076;3.706;2023-03-01T13:21:54;19.40;;;7.70;;
32734;SDS011;19112;51.076;3.706;2023-03-01T13:24:24;20.73;;;7.60;;
32734;SDS011;19112;51.076;3.706;2023-03-01T13:32:25;19.17;;;7.68;;
32734;SDS011;19112;51.076;3.706;2023-03-01T13:35:03;22.80;;;8.88;;
32734;SDS011;19112;51.076;3.706;2023-03-01T13:37:42;24.52;;;9.80;;
32734;SDS011;19112;51.076;3.706;2023-03-01T13:42:42;24.48;;;8.73;;
32734;SDS011;19112;51.076;3.706;2023-03-01T13:48:08;23.13;;;9.52;;
32734;SDS011;19112;51.076;3.706;2023-03-01T13:50:58;27.83;;;10.48;;
32734;SDS011;19112;51.076;3.706;2023-03-01T13:53:42;23.23;;;8.52;;
32734;SDS011;19112;51.076;3.706;2023-03-01T13:56:44;22.13;;;7.97;;
32734;SDS011;19112;51.076;3.706;2023-03-01T14:01:42;26.38;;;8.40;;
32734;SDS011;19112;51.076;3.706;2023-03-01T14:09:55;27.92;;;9.00;;
32734;SDS011;19112;51.076;3.706;2023-03-01T14:12:44;23.40;;;8.80;;
32734;SDS011;19112;51.076;3.706;2023-03-01T14:15:26;21.85;;;8.82;;
32734;SDS011;19112;51.076;3.706;2023-03-01T14:21:09;24.33;;;9.65;;
32734;SDS011;19112;51.076;3.706;2023-03-01T14:23:39;26.27;;;9.40;;
32734;SDS011;19112;51.076;3.706;2023-03-01T14:26:07;28.73;;;10.80;;
32734;SDS011;19112;51.076;3.706;2023-03-01T14:28:34;28.95;;;10.68;;
32734;SDS011;19112;51.076;3.706;2023-03-01T14:31:23;23.45;;;9.80;;
32734;SDS011;19112;51.076;3.706;2023-03-01T14:34:16;23.20;;;9.10;;
32734;SDS011;19112;51.076;3.706;2023-03-01T14:36:46;27.00;;;10.55;;
32734;SDS011;19112;51.076;3.706;2023-03-01T14:39:20;29.10;;;9.77;;
32734;SDS011;19112;51.076;3.706;2023-03-01T14:41:51;24.88;;;8.77;;
32734;SDS011;19112;51.076;3.706;2023-03-01T14:44:20;23.98;;;8.52;;
32734;SDS011;19112;51.076;3.706;2023-03-01T14:46:52;24.42;;;8.68;;
32734;SDS011;19112;51.076;3.706;2023-03-01T14:49:30;20.33;;;8.60;;
32734;SDS011;19112;51.076;3.706;2023-03-01T14:54:47;26.15;;;9.85;;
32734;SDS011;19112;51.076;3.706;2023-03-01T14:57:18;25.17;;;8.57;;
32734;SDS011;19112;51.076;3.706;2023-03-01T14:59:51;25.20;;;9.18;;
32734;SDS011;19112;51.076;3.706;2023-03-01T15:02:24;29.70;;;9.13;;
32734;SDS011;19112;51.076;3.706;2023-03-01T15:04:57;20.80;;;7.97;;
32734;SDS011;19112;51.076;3.706;2023-03-01T15:07:33;22.58;;;8.35;;
32734;SDS011;19112;51.076;3.706;2023-03-01T15:12:48;26.55;;;10.15;;
32734;SDS011;19112;51.076;3.706;2023-03-01T15:15:36;24.00;;;8.80;;
32734;SDS011;19112;51.076;3.706;2023-03-01T15:18:22;30.65;;;9.98;;
32734;SDS011;19112;51.076;3.706;2023-03-01T15:20:56;20.58;;;8.40;;
32734;SDS011;19112;51.076;3.706;2023-03-01T15:23:33;20.75;;;8.48;;
32734;SDS011;19112;51.076;3.706;2023-03-01T15:26:01;20.05;;;8.50;;
32734;SDS011;19112;51.076;3.706;2023-03-01T15:28:32;21.77;;;8.57;;
32734;SDS011;19112;51.076;3.706;2023-03-01T15:33:47;24.30;;;8.38;;
32734;SDS011;19112;51.076;3.706;2023-03-01T15:39:01;22.27;;;8.70;;
32734;SDS011;19112;51.076;3.706;2023-03-01T15:41:29;23.55;;;8.82;;
32734;SDS011;19112;51.076;3.706;2023-03-01T15:44:15;25.42;;;9.07;;
32734;SDS011;19112;51.076;3.706;2023-03-01T15:46:49;21.10;;;9.15;;
32734;SDS011;19112;51.076;3.706;2023-03-01T15:49:58;22.95;;;8.55;;
32734;SDS011;19112;51.076;3.706;2023-03-01T15:52:13;23.70;;;9.25;;
32734;SDS011;19112;51.076;3.706;2023-03-01T15:55:01;20.73;;;9.47;;
32734;SDS011;19112;51.076;3.706;2023-03-01T15:57:31;20.45;;;9.20;;
32734;SDS011;19112;51.076;3.706;2023-03-01T15:59:57;23.77;;;9.43;;
32734;SDS011;19112;51.076;3.706;2023-03-01T16:02:23;21.80;;;9.18;;
32734;SDS011;19112;51.076;3.706;2023-03-01T16:04:49;22.88;;;8.98;;
32734;SDS011;19112;51.076;3.706;2023-03-01T16:07:16;20.60;;;9.60;;
32734;SDS011;19112;51.076;3.706;2023-03-01T16:09:42;20.48;;;9.32;;
32734;SDS011;19112;51.076;3.706;2023-03-01T16:12:12;23.58;;;9.73;;
32734;SDS011;19112;51.076;3.706;2023-03-01T16:14:41;22.55;;;9.70;;
32734;SDS011;19112;51.076;3.706;2023-03-01T16:19:43;22.90;;;9.80;;
32734;SDS011;19112;51.076;3.706;2023-03-01T16:22:10;22.67;;;10.38;;
32734;SDS011;19112;51.076;3.706;2023-03-01T16:24:37;23.90;;;9.85;;
32734;SDS011;19112;51.076;3.706;2023-03-01T16:27:04;22.60;;;10.40;;
32734;SDS011;19112;51.076;3.706;2023-03-01T16:29:30;23.92;;;10.10;;
32734;SDS011;19112;51.076;3.706;2023-03-01T16:32:01;22.13;;;10.07;;
32734;SDS011;19112;51.076;3.706;2023-03-01T16:34:33;24.17;;;10.40;;
32734;SDS011;19112;51.076;3.706;2023-03-01T16:37:00;29.13;;;10.43;;
32734;SDS011;19112;51.076;3.706;2023-03-01T16:39:26;26.17;;;9.98;;
32734;SDS011;19112;51.076;3.706;2023-03-01T16:41:54;28.17;;;11.18;;
32734;SDS011;19112;51.076;3.706;2023-03-01T16:46:50;23.73;;;10.07;;
32734;SDS011;19112;51.076;3.706;2023-03-01T16:49:16;23.02;;;10.02;;
32734;SDS011;19112;51.076;3.706;2023-03-01T16:51:43;29.63;;;11.02;;
32734;SDS011;19112;51.076;3.706;2023-03-01T16:54:09;24.45;;;10.65;;
32734;SDS011;19112;51.076;3.706;2023-03-01T16:56:35;23.80;;;9.65;;
32734;SDS011;19112;51.076;3.706;2023-03-01T16:59:03;22.55;;;10.25;;
32734;SDS011;19112;51.076;3.706;2023-03-01T17:01:30;23.67;;;9.77;;
32734;SDS011;19112;51.076;3.706;2023-03-01T17:04:11;23.30;;;9.98;;
32734;SDS011;19112;51.076;3.706;2023-03-01T17:09:07;24.08;;;10.73;;
32734;SDS011;19112;51.076;3.706;2023-03-01T17:11:34;21.92;;;9.57;;
32734;SDS011;19112;51.076;3.706;2023-03-01T17:14:00;27.92;;;10.18;;
32734;SDS011;19112;51.076;3.706;2023-03-01T17:16:26;23.60;;;10.18;;
32734;SDS011;19112;51.076;3.706;2023-03-01T17:18:58;23.88;;;10.10;;
32734;SDS011;19112;51.076;3.706;2023-03-01T17:21:29;23.42;;;9.73;;
32734;SDS011;19112;51.076;3.706;2023-03-01T17:23:58;23.55;;;9.23;;
32734;SDS011;19112;51.076;3.706;2023-03-01T17:26:26;23.58;;;9.60;;
32734;SDS011;19112;51.076;3.706;2023-03-01T17:28:55;22.42;;;9.00;;
32734;SDS011;19112;51.076;3.706;2023-03-01T17:31:25;26.80;;;10.30;;
32734;SDS011;19112;51.076;3.706;2023-03-01T17:33:53;22.17;;;9.43;;
32734;SDS011;19112;51.076;3.706;2023-03-01T17:36:21;21.13;;;8.98;;
32734;SDS011;19112;51.076;3.706;2023-03-01T17:38:51;21.45;;;9.60;;